createdAt,value
2022-11-24T00:02:12.722Z,25.60
2022-11-24T00:04:44.517Z,26.60
2022-11-24T00:09:46.513Z,29.90
2022-11-24T00:12:18.179Z,28.60
2022-11-24T00:17:20.388Z,24.00
2022-11-24T00:22:22.192Z,20.50
2022-11-24T00:24:53.890Z,20.20
2022-11-24T00:27:25.475Z,20.60
2022-11-24T00:30:00.368Z,22.90
2022-11-24T00:32:32.489Z,24.60
2022-11-24T00:35:03.979Z,30.50
2022-11-24T00:37:35.659Z,33.20
2022-11-24T00:40:09.334Z,37.90
2022-11-24T00:42:40.858Z,38.10
2022-11-24T00:45:14.107Z,29.70
2022-11-24T00:47:46.469Z,23.40
2022-11-24T00:50:18.342Z,22.30
2022-11-24T00:52:49.871Z,18.80
2022-11-24T00:55:22.023Z,19.00
2022-11-24T00:57:53.460Z,18.10
2022-11-24T01:00:25.113Z,20.90
2022-11-24T01:02:56.856Z,16.30
2022-11-24T01:05:28.521Z,16.40
2022-11-24T01:08:00.126Z,17.80
2022-11-24T01:13:01.789Z,18.70
2022-11-24T01:18:03.278Z,25.90
2022-11-24T01:20:34.994Z,24.00
2022-11-24T01:23:06.532Z,21.10
2022-11-24T01:25:38.139Z,18.60
2022-11-24T01:28:09.820Z,17.30
2022-11-24T01:33:11.344Z,18.00
2022-11-24T01:35:42.965Z,21.70
2022-11-24T01:38:14.553Z,18.40
2022-11-24T01:40:46.540Z,20.90
2022-11-24T01:45:51.416Z,22.00
2022-11-24T01:48:27.295Z,22.20
2022-11-24T01:51:04.325Z,27.30
2022-11-24T01:53:35.939Z,30.10
2022-11-24T02:10:43.254Z,42.40
2022-11-24T02:13:15.215Z,45.70
2022-11-24T02:18:16.733Z,38.90
2022-11-24T02:20:48.429Z,33.10
2022-11-24T02:23:21.744Z,36.30
2022-11-24T02:25:57.734Z,31.50
2022-11-24T02:28:31.035Z,37.70
2022-11-24T02:31:02.713Z,26.20
2022-11-24T02:33:34.707Z,21.20
2022-11-24T02:36:06.965Z,19.30
2022-11-24T02:38:39.102Z,17.10
2022-11-24T02:41:12.699Z,17.60
2022-11-24T02:56:06.598Z,12.60
2022-11-24T02:58:38.723Z,12.90
2022-11-24T03:01:10.369Z,13.40
2022-11-24T03:06:12.075Z,14.20
2022-11-24T03:11:13.672Z,17.50
2022-11-24T03:16:15.415Z,18.50
2022-11-24T03:21:16.895Z,26.60
2022-11-24T03:23:48.421Z,35.20
2022-11-24T03:26:21.103Z,30.80
2022-11-24T03:28:53.105Z,26.10
2022-11-24T03:31:24.769Z,22.40
2022-11-24T03:33:56.794Z,22.40
2022-11-24T03:36:28.322Z,19.80
2022-11-24T03:38:59.986Z,17.10
2022-11-24T03:44:02.201Z,17.30
2022-11-24T03:49:04.596Z,20.50
2022-11-24T03:51:36.437Z,23.80
2022-11-24T03:54:08.669Z,23.80
2022-11-24T03:56:40.532Z,18.00
2022-11-24T03:59:12.545Z,22.20
2022-11-24T04:04:15.386Z,20.70
2022-11-24T04:06:47.057Z,24.00
2022-11-24T04:09:18.869Z,22.70
2022-11-24T04:14:38.388Z,19.40
2022-11-24T04:17:10.120Z,29.00
2022-11-24T04:19:42.233Z,34.90
2022-11-24T04:24:44.345Z,52.20
2022-11-24T04:29:46.151Z,49.60
2022-11-24T04:32:17.905Z,50.30
2022-11-24T04:34:49.670Z,54.80
2022-11-24T04:37:21.551Z,56.30
2022-11-24T04:39:55.555Z,61.00
2022-11-24T04:42:27.162Z,59.20
2022-11-24T04:44:59.158Z,57.00
2022-11-24T04:50:00.699Z,46.80
2022-11-24T04:55:02.173Z,55.00
2022-11-24T04:57:33.701Z,52.60
2022-11-24T05:00:05.550Z,48.20
2022-11-24T05:02:37.053Z,36.50
2022-11-24T05:05:10.189Z,33.60
2022-11-24T05:07:41.745Z,35.00
2022-11-24T05:13:00.983Z,27.70
2022-11-24T05:15:32.816Z,21.70
2022-11-24T05:20:35.332Z,17.50
2022-11-24T05:23:07.965Z,23.30
2022-11-24T05:25:40.525Z,21.20
2022-11-24T05:28:15.920Z,26.40
2022-11-24T05:30:47.528Z,22.00
2022-11-24T05:33:20.557Z,22.00
2022-11-24T05:35:52.260Z,26.30
2022-11-24T05:38:24.018Z,37.90
2022-11-24T05:43:25.502Z,30.40
2022-11-24T05:45:59.678Z,24.00
2022-11-24T05:48:31.215Z,24.70
2022-11-24T05:51:07.866Z,33.60
2022-11-24T05:53:41.013Z,37.70
2022-11-24T05:58:42.672Z,33.90
2022-11-24T06:01:14.196Z,36.60
2022-11-24T06:03:45.601Z,34.80
2022-11-24T06:06:17.263Z,32.10
2022-11-24T06:08:48.658Z,29.90
2022-11-24T06:11:20.391Z,22.40
2022-11-24T06:13:51.902Z,20.00
2022-11-24T06:16:23.600Z,19.70
2022-11-24T06:18:55.086Z,19.20
2022-11-24T06:21:26.562Z,15.30
2022-11-24T06:23:57.980Z,16.60
2022-11-24T06:26:29.457Z,15.80
2022-11-24T06:29:00.819Z,19.80
2022-11-24T06:31:32.331Z,16.90
2022-11-24T06:34:03.725Z,16.60
2022-11-24T06:36:35.165Z,16.50
2022-11-24T06:41:38.319Z,15.30
2022-11-24T06:44:10.303Z,17.00
2022-11-24T06:46:42.034Z,15.80
2022-11-24T06:49:13.491Z,16.00
2022-11-24T06:51:45.323Z,16.10
2022-11-24T06:54:18.864Z,14.80
2022-11-24T06:56:50.452Z,17.20
2022-11-24T06:59:22.565Z,16.00
2022-11-24T07:01:54.584Z,14.30
2022-11-24T07:06:56.062Z,17.10
2022-11-24T07:09:28.200Z,15.70
2022-11-24T07:12:00.633Z,15.70
2022-11-24T07:14:33.636Z,14.70
2022-11-24T07:17:05.621Z,15.80
2022-11-24T07:19:37.233Z,15.40
2022-11-24T07:22:09.270Z,17.30
2022-11-24T07:24:40.875Z,17.40
2022-11-24T07:27:12.562Z,15.20
2022-11-24T07:29:44.063Z,17.30
2022-11-24T07:34:45.601Z,17.40
2022-11-24T07:37:17.190Z,20.70
2022-11-24T07:39:48.604Z,19.60
2022-11-24T07:44:50.438Z,26.00
2022-11-24T07:49:52.081Z,27.20
2022-11-24T07:52:26.844Z,32.30
2022-11-24T07:54:58.582Z,30.80
2022-11-24T07:57:30.328Z,33.70
2022-11-24T08:00:01.637Z,29.20
2022-11-24T08:02:36.090Z,33.00
2022-11-24T08:05:08.993Z,33.90
2022-11-24T08:07:40.716Z,33.70
2022-11-24T08:12:43.863Z,30.40
2022-11-24T08:15:15.849Z,32.10
2022-11-24T08:20:34.898Z,24.50
2022-11-24T08:23:06.335Z,22.10
2022-11-24T08:25:37.673Z,22.30
2022-11-24T08:28:09.179Z,25.80
2022-11-24T08:30:40.502Z,26.20
2022-11-24T08:33:13.103Z,25.00
2022-11-24T08:35:44.489Z,20.30
2022-11-24T08:38:17.635Z,20.40
2022-11-24T08:40:48.991Z,18.20
2022-11-24T08:43:20.339Z,18.70
2022-11-24T08:45:51.750Z,18.60
2022-11-24T08:48:24.269Z,18.00
2022-11-24T08:50:56.174Z,17.00
2022-11-24T08:53:30.332Z,16.40
2022-11-24T08:56:03.808Z,15.80
2022-11-24T08:58:35.328Z,15.70
2022-11-24T09:03:42.331Z,15.70
2022-11-24T09:06:28.283Z,13.50
2022-11-24T09:09:01.738Z,15.80
2022-11-24T09:11:36.333Z,14.80
2022-11-24T09:14:08.097Z,12.70
2022-11-24T09:19:09.597Z,12.00
2022-11-24T09:21:41.224Z,12.40
2022-11-24T09:26:47.271Z,11.80
2022-11-24T09:29:19.441Z,11.70
2022-11-24T09:31:50.797Z,10.70
2022-11-24T09:34:22.512Z,9.80
2022-11-24T09:36:53.969Z,12.20
2022-11-24T09:39:25.926Z,11.40
2022-11-24T09:42:09.142Z,12.00
2022-11-24T09:45:19.959Z,11.50
2022-11-24T09:48:04.806Z,11.90
2022-11-24T09:50:37.186Z,12.40
2022-11-24T09:53:12.553Z,11.10
2022-11-24T09:55:45.657Z,11.40
2022-11-24T09:58:22.529Z,11.40
2022-11-24T10:00:54.262Z,12.30
2022-11-24T10:05:57.985Z,12.20
2022-11-24T10:08:59.151Z,12.60
2022-11-24T10:11:33.326Z,12.70
2022-11-24T10:27:15.483Z,36.30
2022-11-24T10:29:46.919Z,35.10
2022-11-24T10:32:21.546Z,34.80
2022-11-24T10:34:53.033Z,29.50
2022-11-24T10:37:27.825Z,22.60
2022-11-24T10:40:02.685Z,24.30
2022-11-24T10:42:36.961Z,25.20
2022-11-24T10:45:13.244Z,33.20
2022-11-24T10:47:45.569Z,39.80
2022-11-24T10:50:20.008Z,38.10
2022-11-24T10:52:56.949Z,31.80
2022-11-24T10:55:28.263Z,21.90
2022-11-24T10:57:59.560Z,21.00
2022-11-24T11:00:36.128Z,30.50
2022-11-24T11:03:22.016Z,30.20
2022-11-24T11:05:54.986Z,29.50
2022-11-24T11:08:29.125Z,24.70
2022-11-24T11:11:23.975Z,23.20
2022-11-24T11:14:03.012Z,24.30
2022-11-24T11:16:38.374Z,23.00
2022-11-24T11:19:53.153Z,18.20
2022-11-24T11:22:28.733Z,15.60
2022-11-24T11:25:20.152Z,14.90
2022-11-24T11:27:51.704Z,13.40
2022-11-24T11:36:16.847Z,14.10
2022-11-24T11:38:50.407Z,13.00
2022-11-24T11:41:23.694Z,13.90
2022-11-24T11:43:58.729Z,13.80
2022-11-24T11:46:30.481Z,13.50
2022-11-24T11:54:36.730Z,13.00
2022-11-24T11:57:12.226Z,11.80
2022-11-24T11:59:51.196Z,12.90
2022-11-24T12:02:58.650Z,11.30
2022-11-24T12:05:35.876Z,10.80
2022-11-24T12:08:20.713Z,12.50
2022-11-24T12:10:58.202Z,11.00
2022-11-24T12:13:48.773Z,12.10
2022-11-24T12:16:30.036Z,11.40
2022-11-24T12:19:09.014Z,11.60
2022-11-24T12:21:43.366Z,11.50
2022-11-24T12:24:19.592Z,9.70
2022-11-24T12:26:52.713Z,11.50
2022-11-24T12:29:40.862Z,11.60
2022-11-24T12:32:22.125Z,10.60
2022-11-24T12:34:55.106Z,13.00
2022-11-24T12:37:41.835Z,11.30
2022-11-24T12:40:17.363Z,10.30
2022-11-24T12:43:00.729Z,11.60
2022-11-24T12:45:35.957Z,11.10
2022-11-24T12:48:19.899Z,10.90
2022-11-24T12:50:51.380Z,12.80
2022-11-24T12:53:24.953Z,11.90
2022-11-24T12:55:56.522Z,12.80
2022-11-24T12:58:31.493Z,12.20
2022-11-24T13:01:15.895Z,13.30
2022-11-24T13:03:54.865Z,13.50
2022-11-24T13:06:29.368Z,14.80
2022-11-24T13:09:00.939Z,14.60
2022-11-24T13:11:42.690Z,14.20
2022-11-24T13:14:19.119Z,13.80
2022-11-24T13:17:29.582Z,13.40
2022-11-24T13:19:49.964Z,15.70
2022-11-24T13:22:25.653Z,16.70
2022-11-24T13:25:17.793Z,17.00
2022-11-24T13:30:52.503Z,17.70
2022-11-24T13:33:46.744Z,17.20
2022-11-24T13:36:32.421Z,18.50
2022-11-24T13:39:04.487Z,17.40
2022-11-24T13:42:41.553Z,17.50
2022-11-24T13:45:03.215Z,18.20
2022-11-24T13:47:54.919Z,20.50
2022-11-24T13:50:49.864Z,20.90
2022-11-24T13:53:26.710Z,18.70
2022-11-24T13:56:00.342Z,16.50
2022-11-24T13:58:37.516Z,18.10
2022-11-24T14:01:16.873Z,17.00
2022-11-24T14:04:27.944Z,16.70
2022-11-24T14:06:45.276Z,18.30
2022-11-24T14:09:24.350Z,16.70
2022-11-24T14:12:09.676Z,17.00
2022-11-24T14:14:41.414Z,16.20
2022-11-24T14:17:21.689Z,15.20
2022-11-24T14:19:54.039Z,16.20
2022-11-24T14:22:27.837Z,17.50
2022-11-24T14:25:00.083Z,19.00
2022-11-24T14:27:33.056Z,17.70
2022-11-24T14:30:06.126Z,17.30
2022-11-24T14:32:38.265Z,18.20
2022-11-24T14:35:23.692Z,17.20
2022-11-24T14:37:55.487Z,19.20
2022-11-24T14:43:22.378Z,19.60
2022-11-24T14:45:59.411Z,20.10
2022-11-24T14:48:31.962Z,19.10
2022-11-24T14:51:14.529Z,20.00
2022-11-24T14:53:46.439Z,19.90
2022-11-24T14:56:28.483Z,18.50
2022-11-24T14:59:02.383Z,16.50
2022-11-24T15:01:35.324Z,18.10
2022-11-24T15:04:38.753Z,18.60
2022-11-24T15:07:17.647Z,20.70
2022-11-24T15:09:54.106Z,20.50
2022-11-24T15:12:31.163Z,19.90
2022-11-24T15:15:03.827Z,20.40
2022-11-24T15:17:35.298Z,18.50
2022-11-24T15:20:11.586Z,18.60
2022-11-24T15:22:43.898Z,18.50
2022-11-24T15:25:38.168Z,19.60
2022-11-24T15:28:10.769Z,19.00
2022-11-24T15:30:42.273Z,19.00
2022-11-24T15:33:18.073Z,20.10
2022-11-24T15:35:49.550Z,22.40
2022-11-24T15:38:21.030Z,23.70
2022-11-24T15:40:54.144Z,23.60
2022-11-24T15:43:31.328Z,23.50
2022-11-24T15:46:03.547Z,21.90
2022-11-24T15:48:35.239Z,22.20
2022-11-24T15:53:37.844Z,23.30
2022-11-24T15:56:13.782Z,28.90
2022-11-24T15:58:45.089Z,22.80
2022-11-24T16:01:16.743Z,23.00
2022-11-24T16:03:49.313Z,22.20
2022-11-24T16:06:25.061Z,21.80
2022-11-24T16:08:58.365Z,23.30
2022-11-24T16:11:30.432Z,22.10
2022-11-24T16:14:02.114Z,24.30
2022-11-24T16:16:34.449Z,24.40
2022-11-24T16:19:06.009Z,23.90
2022-11-24T16:21:37.997Z,23.70
2022-11-24T16:24:10.442Z,23.60
2022-11-24T16:26:42.461Z,24.70
2022-11-24T16:31:46.755Z,24.80
2022-11-24T16:34:18.451Z,26.10
2022-11-24T16:36:50.061Z,25.10
2022-11-24T16:39:21.698Z,23.20
2022-11-24T16:41:53.454Z,24.30
2022-11-24T16:44:24.933Z,25.10
2022-11-24T16:46:57.324Z,24.10
2022-11-24T16:49:28.817Z,25.20
2022-11-24T16:52:00.751Z,22.80
2022-11-24T16:54:33.494Z,23.90
2022-11-24T16:57:10.312Z,21.40
2022-11-24T16:59:47.458Z,21.50
2022-11-24T17:02:19.642Z,21.60
2022-11-24T17:04:52.737Z,22.30
2022-11-24T17:07:24.483Z,23.70
2022-11-24T17:09:56.152Z,23.80
2022-11-24T17:12:28.077Z,25.80
2022-11-24T17:15:30.609Z,23.00
2022-11-24T17:18:22.290Z,22.70
2022-11-24T17:20:43.271Z,22.50
2022-11-24T17:23:15.963Z,23.50
2022-11-24T17:25:48.511Z,21.10
2022-11-24T17:28:20.174Z,23.20
2022-11-24T17:33:21.351Z,22.20
2022-11-24T17:35:52.886Z,20.40
2022-11-24T17:38:24.741Z,20.30
2022-11-24T17:40:56.383Z,22.10
2022-11-24T17:43:28.683Z,20.40
2022-11-24T17:46:01.613Z,21.60
2022-11-24T17:48:34.260Z,21.60
2022-11-24T17:51:08.071Z,21.00
2022-11-24T17:53:39.811Z,21.20
2022-11-24T17:58:43.304Z,19.70
2022-11-24T18:01:16.250Z,19.30
2022-11-24T18:03:53.199Z,17.80
2022-11-24T18:06:26.250Z,19.00
2022-11-24T18:08:58.818Z,17.90
2022-11-24T18:11:32.200Z,16.50
2022-11-24T18:14:04.294Z,16.10
2022-11-24T18:16:36.037Z,18.80
2022-11-24T18:21:44.052Z,20.20
2022-11-24T18:24:18.560Z,18.60
2022-11-24T18:26:54.254Z,17.30
2022-11-24T18:29:25.807Z,15.70
2022-11-24T18:31:57.357Z,15.50
2022-11-24T18:34:29.010Z,17.70
2022-11-24T18:37:00.596Z,15.10
2022-11-24T18:39:31.951Z,15.90
2022-11-24T18:42:03.508Z,19.50
2022-11-24T18:44:35.219Z,18.50
2022-11-24T18:47:07.674Z,16.70
2022-11-24T18:49:39.233Z,15.90
2022-11-24T18:52:10.766Z,15.80
2022-11-24T18:54:42.187Z,14.90
2022-11-24T18:57:13.605Z,15.10
2022-11-24T18:59:45.007Z,15.90
2022-11-24T19:02:16.897Z,16.50
2022-11-24T19:04:48.329Z,17.30
2022-11-24T19:07:20.737Z,17.30
2022-11-24T19:09:52.316Z,17.80
2022-11-24T19:12:23.674Z,20.30
2022-11-24T19:14:55.429Z,21.20
2022-11-24T19:17:27.322Z,19.60
2022-11-24T19:22:28.637Z,17.30
2022-11-24T19:25:00.227Z,19.00
2022-11-24T19:27:33.523Z,17.60
2022-11-24T19:30:05.348Z,17.00
2022-11-24T19:32:36.829Z,18.10
2022-11-24T19:35:09.860Z,19.30
2022-11-24T19:37:41.474Z,18.20
2022-11-24T19:40:15.180Z,18.90
2022-11-24T19:42:46.584Z,19.70
2022-11-24T19:45:18.547Z,18.80
2022-11-24T19:50:20.130Z,20.90
2022-11-24T19:52:51.615Z,26.90
2022-11-24T19:55:23.003Z,28.70
2022-11-24T19:57:54.700Z,32.50
2022-11-24T20:03:02.411Z,33.80
2022-11-24T20:08:03.523Z,35.10
2022-11-24T20:10:34.856Z,30.20
2022-11-24T20:13:06.652Z,28.60
2022-11-24T20:15:38.091Z,26.60
2022-11-24T20:20:39.872Z,24.80
2022-11-24T20:23:11.357Z,26.60
2022-11-24T20:25:43.076Z,36.90
2022-11-24T20:28:14.705Z,45.70
2022-11-24T20:30:46.490Z,47.20
2022-11-24T20:33:17.976Z,52.70
2022-11-24T20:35:49.540Z,49.10
2022-11-24T20:40:50.904Z,44.70
2022-11-24T20:43:22.747Z,43.40
2022-11-24T20:45:54.216Z,40.90
2022-11-24T20:48:25.903Z,42.00
2022-11-24T20:50:57.362Z,40.60
2022-11-24T20:53:29.041Z,41.10
2022-11-24T20:56:06.332Z,40.90
2022-11-24T20:58:38.372Z,39.00
2022-11-24T21:01:10.903Z,50.70
2022-11-24T21:03:43.526Z,54.80
2022-11-24T21:06:15.395Z,53.30
2022-11-24T21:08:46.792Z,50.10
2022-11-24T21:11:18.678Z,47.70
2022-11-24T21:13:50.233Z,48.20
2022-11-24T21:16:22.794Z,46.20
2022-11-24T21:18:58.174Z,53.30
2022-11-24T21:21:34.231Z,51.10
2022-11-24T21:24:06.128Z,53.70
2022-11-24T21:26:38.980Z,49.50
2022-11-24T21:29:10.452Z,49.60
2022-11-24T21:31:41.840Z,30.80
2022-11-24T21:34:15.033Z,22.60
2022-11-24T21:36:46.498Z,20.20
2022-11-24T21:39:18.855Z,22.60
2022-11-24T21:41:50.705Z,20.80
2022-11-24T21:46:55.956Z,17.50
2022-11-24T21:49:27.765Z,18.40
2022-11-24T21:51:59.578Z,19.20
2022-11-24T21:57:00.797Z,18.70
2022-11-24T21:59:32.393Z,19.40
2022-11-24T22:02:06.689Z,19.50
2022-11-24T22:04:40.727Z,20.40
2022-11-24T22:07:12.230Z,21.20
2022-11-24T22:09:43.544Z,21.40
2022-11-24T22:12:14.990Z,19.60
2022-11-24T22:14:46.488Z,19.40
2022-11-24T22:17:17.915Z,18.00
2022-11-24T22:19:49.336Z,19.00
2022-11-24T22:22:20.802Z,17.50
2022-11-24T22:24:52.231Z,18.70
2022-11-24T22:27:23.817Z,18.60
2022-11-24T22:32:25.944Z,19.30
2022-11-24T22:34:57.419Z,20.50
2022-11-24T22:37:28.816Z,19.60
2022-11-24T22:40:00.195Z,19.90
2022-11-24T22:42:31.644Z,19.10
2022-11-24T22:45:03.156Z,20.10
2022-11-24T22:47:34.472Z,19.60
2022-11-24T22:50:07.244Z,20.10
2022-11-24T22:52:40.971Z,18.40
2022-11-24T22:55:12.770Z,19.00
2022-11-24T22:57:48.067Z,18.00
2022-11-24T23:00:21.259Z,19.30
2022-11-24T23:02:54.816Z,21.00
2022-11-24T23:05:26.762Z,21.40
2022-11-24T23:07:58.297Z,19.90
2022-11-24T23:10:29.914Z,20.90
2022-11-24T23:13:01.476Z,19.70
2022-11-24T23:15:32.995Z,20.50
2022-11-24T23:18:04.466Z,18.10
2022-11-24T23:20:37.303Z,19.80
2022-11-24T23:23:08.953Z,19.60
2022-11-24T23:28:10.559Z,21.80
2022-11-24T23:30:42.462Z,20.60
2022-11-24T23:33:13.838Z,19.90
2022-11-24T23:35:45.381Z,20.40
2022-11-24T23:38:16.776Z,18.30
2022-11-24T23:40:48.621Z,19.30
2022-11-24T23:43:19.962Z,19.40
2022-11-24T23:45:51.717Z,19.10
2022-11-24T23:48:23.248Z,18.80
2022-11-24T23:53:24.666Z,18.50
2022-11-24T23:55:59.338Z,20.80
2022-11-24T23:58:30.714Z,19.80
